Terminal Aerodrome Forecast
Issued by NWS

Home | Current Version | Previous Version | Text Only | Print | Product List | Glossary On
Versions: 1 2 3 4 5 6 7 8 9 10 11 12 13
000
FTUS42 TJSJ 021721
TAFISX
TAF
TISX 021721Z 0218/0318 01004KT P6SM VCSH SCT025 SCT029
     FM022300 06005KT P6SM VCSH FEW050
     FM031300 12010KT P6SM SCT025 SCT030 SCT060=

USA.gov is the U.S. government's official web portal to all federal, state and local government web resources and services.